Georgetown, Maryland
Current Conditions -  °F | °C
As of 7:51 AM on Thursday 27 Nov 2014 (Local Time) from KILG Reporting Station
Scattered Clouds Scattered Clouds  
Wind Chill: 30°   Ceiling: Unl
Heat Index: 35°   Visibility: 10mi
Dew Point: 30°   Wind: 6mph
Humidity: 82%   Direction: 270°W
Pressure: 30.03"   Gusts: NA
Location:  39.36°N, 75.88°W
Report Text: KILG 271251Z AUTO 27005KT 10SM SCT080 02/M01 A3003 RMK AO2 SLP169 T00171011
Loading
Personal Weather Stations






























Interactive Weather Map New forecast layout! Learn more

10-Day Weather Forecast

Advertisements
Track Severe Weather on mobile